createdAt,value
2024-02-24T00:01:59.260Z,98946.47
2024-02-24T00:04:26.764Z,98944.00
2024-02-24T00:06:56.153Z,98951.06
2024-02-24T00:09:24.127Z,98946.75
2024-02-24T00:11:54.321Z,98943.25
2024-02-24T00:14:22.650Z,98939.69
2024-02-24T00:16:50.594Z,98947.59
2024-02-24T00:19:18.504Z,98941.38
2024-02-24T00:21:46.441Z,98951.00
2024-02-24T00:24:15.971Z,98950.91
2024-02-24T00:26:44.126Z,98954.31
2024-02-24T00:29:12.224Z,98955.16
2024-02-24T00:31:41.784Z,98949.88
2024-02-24T00:34:09.776Z,98950.81
2024-02-24T00:36:37.897Z,98956.94
2024-02-24T00:39:05.830Z,98945.53
2024-02-24T00:41:35.260Z,98949.97
2024-02-24T00:44:03.761Z,98949.03
2024-02-24T00:46:32.012Z,98947.41
2024-02-24T00:49:00.020Z,98940.44
2024-02-24T00:51:27.947Z,98944.88
2024-02-24T00:53:55.929Z,98951.00
2024-02-24T00:56:23.943Z,98957.28
2024-02-24T00:58:53.337Z,98949.47
2024-02-24T01:01:21.378Z,98946.91
2024-02-24T01:03:49.363Z,98944.28
2024-02-24T01:06:17.433Z,98932.00
2024-02-24T01:08:45.441Z,98940.88
2024-02-24T01:11:13.663Z,98928.59
2024-02-24T01:13:42.523Z,98940.06
2024-02-24T01:16:11.870Z,98929.59
2024-02-24T01:18:39.924Z,98938.44
2024-02-24T01:21:08.205Z,98936.75
2024-02-24T01:23:36.273Z,98938.53
2024-02-24T01:26:04.746Z,98931.56
2024-02-24T01:28:32.745Z,98931.56
2024-02-24T01:31:00.632Z,98940.41
2024-02-24T01:33:30.304Z,98936.84
2024-02-24T01:35:58.278Z,98930.72
2024-02-24T01:38:26.251Z,98930.78
2024-02-24T01:40:54.264Z,98933.44
2024-02-24T01:43:26.525Z,98930.03
2024-02-24T01:45:56.588Z,98930.03
2024-02-24T01:48:25.176Z,98930.03
2024-02-24T01:50:55.535Z,98924.75
2024-02-24T01:53:23.867Z,98932.66
2024-02-24T01:55:53.291Z,98926.53
2024-02-24T01:58:22.657Z,98936.22
2024-02-24T02:00:51.100Z,98936.16
2024-02-24T02:03:19.082Z,98934.28
2024-02-24T02:05:47.118Z,98928.91
2024-02-24T02:08:16.606Z,98937.69
2024-02-24T02:10:45.795Z,98930.63
2024-02-24T02:13:15.017Z,98943.03
2024-02-24T02:15:43.201Z,98940.31
2024-02-24T02:18:11.484Z,98934.97
2024-02-24T02:20:39.607Z,98938.38
2024-02-24T02:23:09.018Z,98947.03
2024-02-24T02:25:37.480Z,98940.88
2024-02-24T02:28:06.090Z,98939.06
2024-02-24T02:30:34.051Z,98942.63
2024-02-24T02:33:02.286Z,98952.41
2024-02-24T02:35:30.416Z,98952.56
2024-02-24T02:37:58.374Z,98952.75
2024-02-24T02:40:27.736Z,98964.22
2024-02-24T02:42:55.727Z,98976.69
2024-02-24T02:45:23.721Z,98980.59
2024-02-24T02:47:52.068Z,98960.19
2024-02-24T02:50:20.102Z,98962.59
2024-02-24T02:52:48.090Z,98970.34
2024-02-24T02:55:18.979Z,98972.91
2024-02-24T02:57:48.625Z,98964.91
2024-02-24T03:00:17.531Z,98975.38
2024-02-24T03:02:45.633Z,98973.44
2024-02-24T03:05:13.688Z,98970.78
2024-02-24T03:07:41.708Z,98987.16
2024-02-24T03:10:10.591Z,98987.84
2024-02-24T03:12:38.585Z,98991.03
2024-02-24T03:15:09.412Z,98999.03
2024-02-24T03:17:37.524Z,99007.66
2024-02-24T03:20:24.316Z,99010.91
2024-02-24T03:22:52.311Z,99018.81
2024-02-24T03:25:20.422Z,99030.47
2024-02-24T03:27:50.478Z,99019.56
2024-02-24T03:30:19.912Z,99032.25
2024-02-24T03:32:47.845Z,99036.28
2024-02-24T03:35:16.027Z,99037.19
2024-02-24T03:37:44.039Z,99036.44
2024-02-24T03:40:14.287Z,99033.25
2024-02-24T03:42:42.342Z,99039.00
2024-02-24T03:45:11.168Z,99039.38
2024-02-24T03:47:40.518Z,99041.25
2024-02-24T03:50:09.991Z,99044.19
2024-02-24T03:52:39.201Z,99047.84
2024-02-24T03:55:07.418Z,99059.38
2024-02-24T03:57:35.380Z,99060.31
2024-02-24T04:00:03.862Z,99068.41
2024-02-24T04:02:44.884Z,99076.31
2024-02-24T04:05:13.646Z,99078.53
2024-02-24T04:07:41.604Z,99079.88
2024-02-24T04:10:10.205Z,99083.56
2024-02-24T04:12:38.397Z,99087.13
2024-02-24T04:15:06.795Z,99089.91
2024-02-24T04:17:34.881Z,99104.13
2024-02-24T04:20:04.300Z,99094.56
2024-02-24T04:22:32.219Z,99102.59
2024-02-24T04:25:00.208Z,99104.38
2024-02-24T04:27:28.221Z,99093.16
2024-02-24T04:29:56.271Z,99094.09
2024-02-24T04:32:24.344Z,99102.00
2024-02-24T04:34:52.413Z,99101.22
2024-02-24T04:37:21.702Z,99108.97
2024-02-24T04:39:49.657Z,99106.47
2024-02-24T04:42:17.861Z,99110.81
2024-02-24T04:44:48.562Z,99109.97
2024-02-24T04:47:16.630Z,99111.75
2024-02-24T04:49:44.659Z,99118.88
2024-02-24T04:52:12.568Z,99123.31
2024-02-24T04:54:41.985Z,99117.38
2024-02-24T04:57:10.098Z,99123.56
2024-02-24T04:59:37.991Z,99113.25
2024-02-24T05:02:06.329Z,99123.06
2024-02-24T05:04:34.670Z,99119.59
2024-02-24T05:07:02.999Z,99129.41
2024-02-24T05:09:30.965Z,99116.25
2024-02-24T05:12:00.344Z,99125.31
2024-02-24T05:14:28.281Z,99128.13
2024-02-24T05:16:56.298Z,99129.13
2024-02-24T05:19:24.469Z,99127.50
2024-02-24T05:21:53.056Z,99129.28
2024-02-24T05:24:20.987Z,99142.44
2024-02-24T05:26:49.053Z,99151.13
2024-02-24T05:29:18.868Z,99156.41
2024-02-24T05:31:46.859Z,99156.53
2024-02-24T05:34:14.925Z,99165.44
2024-02-24T05:36:43.007Z,99157.53
2024-02-24T05:39:10.927Z,99163.66
2024-02-24T05:41:38.966Z,99168.09
2024-02-24T05:44:08.061Z,99182.22
2024-02-24T05:46:37.428Z,99187.63
2024-02-24T05:49:05.895Z,99193.81
2024-02-24T05:51:33.822Z,99197.66
2024-02-24T05:54:01.794Z,99201.19
2024-02-24T05:56:29.820Z,99196.75
2024-02-24T05:58:57.793Z,99210.69
2024-02-24T06:01:25.746Z,99197.31
2024-02-24T06:03:56.118Z,99196.25
2024-02-24T06:06:24.244Z,99194.41
2024-02-24T06:08:52.560Z,99214.56
2024-02-24T06:11:20.730Z,99229.50
2024-02-24T06:13:48.860Z,99235.81
2024-02-24T06:16:16.790Z,99225.22
2024-02-24T06:18:44.844Z,99209.38
2024-02-24T06:21:14.284Z,99211.16
2024-02-24T06:23:42.482Z,99218.75
2024-02-24T06:26:10.398Z,99206.75
2024-02-24T06:28:39.994Z,99214.72
2024-02-24T06:31:08.038Z,99218.28
2024-02-24T06:33:36.703Z,99226.19
2024-02-24T06:36:05.272Z,99230.19
2024-02-24T06:38:34.842Z,99230.91
2024-02-24T06:41:02.890Z,99228.72
2024-02-24T06:43:30.916Z,99229.13
2024-02-24T06:45:59.628Z,99244.88
2024-02-24T06:48:27.761Z,99241.75
2024-02-24T06:50:56.026Z,99244.88
2024-02-24T06:53:24.002Z,99242.31
2024-02-24T06:55:53.352Z,99238.69
2024-02-24T06:58:21.261Z,99247.44
2024-02-24T07:00:49.328Z,99249.31
2024-02-24T07:03:20.034Z,99258.56
2024-02-24T07:05:48.199Z,99254.78
2024-02-24T07:08:16.317Z,99251.72
2024-02-24T07:10:44.722Z,99252.16
2024-02-24T07:13:14.020Z,99257.28
2024-02-24T07:15:41.937Z,99258.75
2024-02-24T07:18:09.964Z,99262.31
2024-02-24T07:20:37.975Z,99281.00
2024-02-24T07:23:05.937Z,99288.34
2024-02-24T07:25:33.891Z,99290.56
2024-02-24T07:28:01.841Z,99299.53
2024-02-24T07:30:31.292Z,99303.41
2024-02-24T07:32:59.522Z,99312.25
2024-02-24T07:35:27.555Z,99307.81
2024-02-24T07:37:55.536Z,99318.94
2024-02-24T07:40:23.463Z,99314.16
2024-02-24T07:42:55.179Z,99311.09
2024-02-24T07:45:24.174Z,99311.09
2024-02-24T07:47:53.975Z,99314.66
2024-02-24T07:50:22.456Z,99325.09
2024-02-24T07:52:50.449Z,99316.88
2024-02-24T07:55:19.298Z,99324.56
2024-02-24T07:57:47.303Z,99330.47
2024-02-24T08:00:15.915Z,99338.91
2024-02-24T08:02:43.874Z,99346.56
2024-02-24T08:05:13.395Z,99351.59
2024-02-24T08:07:41.457Z,99352.09
2024-02-24T08:10:10.283Z,99347.44
2024-02-24T08:12:38.608Z,99353.38
2024-02-24T08:15:07.408Z,99351.44
2024-02-24T08:17:35.461Z,99358.25
2024-02-24T08:20:03.455Z,99358.91
2024-02-24T08:22:32.687Z,99371.03
2024-02-24T08:25:00.605Z,99368.03
2024-02-24T08:27:28.568Z,99365.22
2024-02-24T08:29:56.571Z,99355.22
2024-02-24T08:32:24.903Z,99343.78
2024-02-24T08:34:53.095Z,99354.19
2024-02-24T08:37:21.112Z,99353.75
2024-02-24T08:39:52.732Z,99351.53
2024-02-24T08:42:20.679Z,99364.38
2024-02-24T08:44:48.652Z,99356.59
2024-02-24T08:47:16.674Z,99357.59
2024-02-24T08:49:46.276Z,99358.38
2024-02-24T08:52:14.229Z,99351.97
2024-02-24T08:54:42.112Z,99355.25
2024-02-24T08:57:11.393Z,99367.53
2024-02-24T08:59:39.399Z,99367.84
2024-02-24T09:02:07.321Z,99364.34
2024-02-24T09:04:35.256Z,99362.63
2024-02-24T09:07:03.489Z,99359.97
2024-02-24T09:09:31.491Z,99371.13
2024-02-24T09:11:59.509Z,99372.34
2024-02-24T09:14:28.971Z,99387.88
2024-02-24T09:16:57.630Z,99383.53
2024-02-24T09:19:27.431Z,99384.72
2024-02-24T09:21:55.428Z,99393.09
2024-02-24T09:24:23.416Z,99394.47
2024-02-24T09:26:51.459Z,99387.22
2024-02-24T09:29:20.141Z,99393.31
2024-02-24T09:31:49.433Z,99401.84
2024-02-24T09:34:18.209Z,99402.72
2024-02-24T09:36:46.411Z,99404.28
2024-02-24T09:39:15.339Z,99413.84
2024-02-24T09:41:43.302Z,99420.00
2024-02-24T09:44:11.463Z,99413.41
2024-02-24T09:46:40.146Z,99419.72
2024-02-24T09:49:12.146Z,99440.06
2024-02-24T09:51:47.126Z,99439.38
2024-02-24T09:54:15.458Z,99445.97
2024-02-24T09:56:44.531Z,99444.84
2024-02-24T09:59:13.416Z,99451.09
2024-02-24T10:01:41.339Z,99449.53
2024-02-24T10:04:10.662Z,99464.56
2024-02-24T10:06:45.342Z,99461.41
2024-02-24T10:09:14.090Z,99462.72
2024-02-24T10:11:42.609Z,99463.41
2024-02-24T10:14:10.887Z,99467.22
2024-02-24T10:16:39.572Z,99462.97
2024-02-24T10:19:07.801Z,99459.91
2024-02-24T10:21:37.528Z,99451.09
2024-02-24T10:24:06.647Z,99460.34
2024-02-24T10:26:34.719Z,99459.75
2024-02-24T10:29:07.535Z,99458.53
2024-02-24T10:31:37.385Z,99456.22
2024-02-24T10:34:06.331Z,99446.28
2024-02-24T10:36:35.483Z,99455.44
2024-02-24T10:39:06.879Z,99458.47
2024-02-24T10:41:35.625Z,99461.59
2024-02-24T10:44:10.680Z,99461.81
2024-02-24T10:46:46.715Z,99467.84
2024-02-24T10:49:15.068Z,99468.41
2024-02-24T10:51:47.450Z,99469.22
2024-02-24T10:54:23.865Z,99474.66
2024-02-24T10:56:58.291Z,99472.09
2024-02-24T10:59:30.139Z,99471.44
2024-02-24T11:02:02.497Z,99466.31
2024-02-24T11:04:31.558Z,99471.25
2024-02-24T11:07:01.971Z,99464.09
2024-02-24T11:09:36.892Z,99472.06
2024-02-24T11:12:11.833Z,99472.84
2024-02-24T11:14:40.565Z,99470.03
2024-02-24T11:17:08.869Z,99465.06
2024-02-24T11:19:45.025Z,99463.19
2024-02-24T11:22:20.239Z,99467.94
2024-02-24T11:25:00.831Z,99476.50
2024-02-24T11:27:32.851Z,99475.47
2024-02-24T11:30:01.180Z,99466.84
2024-02-24T11:32:29.354Z,99468.63
2024-02-24T11:34:58.357Z,99467.50
2024-02-24T11:37:26.967Z,99465.41
2024-02-24T11:39:57.249Z,99474.22
2024-02-24T11:42:25.487Z,99465.97
2024-02-24T11:44:54.140Z,99468.69
2024-02-24T11:47:23.802Z,99472.72
2024-02-24T11:49:51.887Z,99474.72
2024-02-24T11:52:19.923Z,99481.94
2024-02-24T11:54:48.740Z,99488.25
2024-02-24T11:57:19.607Z,99498.56
2024-02-24T11:59:49.939Z,99496.16
2024-02-24T12:02:18.056Z,99498.19
2024-02-24T12:04:46.084Z,99497.00
2024-02-24T12:07:14.478Z,99505.72
2024-02-24T12:09:43.462Z,99499.47
2024-02-24T12:12:11.683Z,99500.63
2024-02-24T12:14:40.952Z,99496.44
2024-02-24T12:17:08.973Z,99499.25
2024-02-24T12:19:39.513Z,99492.03
2024-02-24T12:22:11.189Z,99498.63
2024-02-24T12:24:40.160Z,99500.41
2024-02-24T12:27:11.385Z,99509.63
2024-02-24T12:29:40.941Z,99511.16
2024-02-24T12:32:10.023Z,99504.06
2024-02-24T12:34:38.738Z,99510.88
2024-02-24T12:37:08.798Z,99511.81
2024-02-24T12:39:42.128Z,99504.63
2024-02-24T12:42:10.283Z,99507.28
2024-02-24T12:44:38.314Z,99507.69
2024-02-24T12:47:07.954Z,99503.91
2024-02-24T12:49:36.264Z,99508.25
2024-02-24T12:52:05.820Z,99508.75
2024-02-24T12:54:33.733Z,99512.34
2024-02-24T12:57:01.648Z,99521.44
2024-02-24T12:59:30.612Z,99513.47
2024-02-24T13:01:59.612Z,99517.06
2024-02-24T13:04:29.361Z,99513.84
2024-02-24T13:06:57.640Z,99514.31
2024-02-24T13:09:25.682Z,99520.75
2024-02-24T13:11:56.358Z,99523.41
2024-02-24T13:14:25.550Z,99529.47
2024-02-24T13:16:53.709Z,99526.56
2024-02-24T13:19:21.708Z,99522.47
2024-02-24T13:21:51.176Z,99528.53
2024-02-24T13:24:19.115Z,99530.81
2024-02-24T13:26:47.098Z,99525.59
2024-02-24T13:29:15.020Z,99531.66
2024-02-24T13:31:43.338Z,99531.28
2024-02-24T13:34:11.553Z,99528.41
2024-02-24T13:36:39.607Z,99528.50
2024-02-24T13:39:09.069Z,99530.00
2024-02-24T13:41:37.849Z,99528.13
2024-02-24T13:44:07.636Z,99537.00
2024-02-24T13:46:35.634Z,99532.66
2024-02-24T13:49:04.884Z,99539.13
2024-02-24T13:51:33.616Z,99537.31
2024-02-24T13:54:01.864Z,99538.06
2024-02-24T13:56:31.308Z,99543.88
2024-02-24T13:59:01.406Z,99541.41
2024-02-24T14:01:32.189Z,99537.91
2024-02-24T14:04:00.265Z,99536.09
2024-02-24T14:06:28.985Z,99542.41
2024-02-24T14:08:57.164Z,99540.44
2024-02-24T14:11:26.239Z,99543.09
2024-02-24T14:13:55.868Z,99549.09
2024-02-24T14:16:23.839Z,99550.88
2024-02-24T14:18:51.975Z,99550.78
2024-02-24T14:21:20.190Z,99551.75
2024-02-24T14:23:48.173Z,99551.06
2024-02-24T14:26:16.106Z,99554.50
2024-02-24T14:28:46.550Z,99553.53
2024-02-24T14:31:17.518Z,99559.69
2024-02-24T14:33:45.523Z,99556.28
2024-02-24T14:36:13.505Z,99546.53
2024-02-24T14:38:41.600Z,99546.53
2024-02-24T14:41:09.614Z,99555.44
2024-02-24T14:43:37.646Z,99553.88
2024-02-24T14:46:05.799Z,99555.19
2024-02-24T14:48:36.258Z,99563.75
2024-02-24T14:51:04.818Z,99557.66
2024-02-24T14:53:33.018Z,99558.34
2024-02-24T14:56:01.117Z,99559.66
2024-02-24T14:58:29.081Z,99564.28
2024-02-24T15:00:57.068Z,99566.25
2024-02-24T15:03:25.099Z,99567.81
2024-02-24T15:05:54.550Z,99576.00
2024-02-24T15:08:23.876Z,99569.19
2024-02-24T15:10:51.938Z,99573.34
2024-02-24T15:13:25.609Z,99576.28
2024-02-24T15:15:57.570Z,99574.69
2024-02-24T15:18:25.637Z,99568.56
2024-02-24T15:20:55.014Z,99578.50
2024-02-24T15:23:23.218Z,99572.44
2024-02-24T15:25:51.389Z,99583.06
2024-02-24T15:28:19.783Z,99581.06
2024-02-24T15:30:47.951Z,99589.97
2024-02-24T15:33:15.928Z,99585.38
2024-02-24T15:35:44.028Z,99589.63
2024-02-24T15:38:13.394Z,99595.41
2024-02-24T15:40:42.535Z,99589.81
2024-02-24T15:43:10.655Z,99591.03
2024-02-24T15:45:38.579Z,99596.34
2024-02-24T15:48:07.872Z,99600.53
2024-02-24T15:50:35.864Z,99607.63
2024-02-24T15:53:03.813Z,99602.06
2024-02-24T15:55:33.066Z,99603.34
2024-02-24T15:58:01.392Z,99622.16
2024-02-24T16:00:29.276Z,99610.38
2024-02-24T16:02:57.361Z,99615.38
2024-02-24T16:05:25.641Z,99618.69
2024-02-24T16:07:53.528Z,99624.81
2024-02-24T16:10:21.682Z,99638.69
2024-02-24T16:12:50.112Z,99632.53
2024-02-24T16:15:18.143Z,99634.50
2024-02-24T16:17:46.162Z,99639.13
2024-02-24T16:20:15.597Z,99641.88
2024-02-24T16:22:43.577Z,99645.75
2024-02-24T16:25:15.179Z,99649.53
2024-02-24T16:27:43.458Z,99654.19
2024-02-24T16:30:13.703Z,99656.41
2024-02-24T16:32:41.835Z,99661.63
2024-02-24T16:35:10.243Z,99666.16
2024-02-24T16:37:38.150Z,99663.72
2024-02-24T16:40:07.385Z,99675.34
2024-02-24T16:42:35.308Z,99674.56
2024-02-24T16:45:05.045Z,99678.00
2024-02-24T16:47:34.491Z,99686.19
2024-02-24T16:50:02.543Z,99674.31
2024-02-24T16:52:30.695Z,99679.09
2024-02-24T16:54:58.558Z,99685.25
2024-02-24T16:57:26.623Z,99690.00
2024-02-24T16:59:54.606Z,99697.00
2024-02-24T17:02:22.525Z,99696.91
2024-02-24T17:04:57.043Z,99693.38
2024-02-24T17:07:25.021Z,99701.38
2024-02-24T17:09:52.901Z,99706.06
2024-02-24T17:12:20.968Z,99702.88
2024-02-24T17:14:49.152Z,99702.72
2024-02-24T17:17:17.112Z,99706.22
2024-02-24T17:19:45.163Z,99697.88
2024-02-24T17:22:14.551Z,99713.06
2024-02-24T17:24:43.040Z,99706.66
2024-02-24T17:27:12.172Z,99717.97
2024-02-24T17:29:40.478Z,99724.44
2024-02-24T17:32:08.500Z,99731.28
2024-02-24T17:34:37.181Z,99728.56
2024-02-24T17:37:05.565Z,99733.41
2024-02-24T17:39:37.617Z,99732.63
2024-02-24T17:42:12.643Z,99730.88
2024-02-24T17:44:41.125Z,99727.94
2024-02-24T17:47:09.258Z,99728.63
2024-02-24T17:49:37.389Z,99725.81
2024-02-24T17:52:06.279Z,99729.41
2024-02-24T17:54:35.721Z,99730.09
2024-02-24T17:57:04.226Z,99724.72
2024-02-24T17:59:34.604Z,99733.91
2024-02-24T18:02:04.590Z,99730.19
2024-02-24T18:04:34.716Z,99736.94
2024-02-24T18:07:02.823Z,99736.81
2024-02-24T18:09:31.119Z,99737.66
2024-02-24T18:12:01.196Z,99730.16
2024-02-24T18:14:29.300Z,99732.09
2024-02-24T18:16:58.236Z,99732.72
2024-02-24T18:19:26.611Z,99732.31
2024-02-24T18:21:54.698Z,99744.06
2024-02-24T18:24:22.827Z,99735.97
2024-02-24T18:26:51.307Z,99736.91
2024-02-24T18:29:23.270Z,99732.69
2024-02-24T18:31:52.364Z,99739.13
2024-02-24T18:34:21.590Z,99748.00
2024-02-24T18:36:49.925Z,99745.66
2024-02-24T18:39:18.785Z,99744.78
2024-02-24T18:41:47.566Z,99752.03
2024-02-24T18:44:16.498Z,99750.63
2024-02-24T18:46:47.240Z,99750.81
2024-02-24T18:49:16.758Z,99750.03
2024-02-24T18:51:45.865Z,99741.09
2024-02-24T18:54:15.268Z,99741.47
2024-02-24T18:56:43.862Z,99751.19
2024-02-24T18:59:12.461Z,99753.97
2024-02-24T19:01:42.574Z,99758.63
2024-02-24T19:04:14.402Z,99752.81
2024-02-24T19:06:43.778Z,99764.38
2024-02-24T19:09:13.632Z,99775.97
2024-02-24T19:11:43.422Z,99774.41
2024-02-24T19:14:11.840Z,99772.00
2024-02-24T19:16:41.049Z,99767.78
2024-02-24T19:19:12.729Z,99761.59
2024-02-24T19:21:44.186Z,99767.09
2024-02-24T19:24:15.609Z,99774.19
2024-02-24T19:26:45.182Z,99776.06
2024-02-24T19:29:16.593Z,99768.41
2024-02-24T19:31:46.815Z,99775.47
2024-02-24T19:34:20.759Z,99774.88
2024-02-24T19:36:52.686Z,99776.72
2024-02-24T19:39:22.776Z,99782.88
2024-02-24T19:41:53.751Z,99783.00
2024-02-24T19:44:26.825Z,99794.56
2024-02-24T19:46:56.845Z,99794.66
2024-02-24T19:49:28.105Z,99785.84
2024-02-24T19:51:59.628Z,99793.81
2024-02-24T19:54:29.611Z,99797.28
2024-02-24T19:56:59.745Z,99801.66
2024-02-24T19:59:30.330Z,99794.66
2024-02-24T20:02:00.967Z,99792.91
2024-02-24T20:04:33.241Z,99789.53
2024-02-24T20:07:05.209Z,99794.81
2024-02-24T20:09:39.090Z,99786.97
2024-02-24T20:12:13.613Z,99794.09
2024-02-24T20:14:44.341Z,99785.38
2024-02-24T20:17:15.054Z,99776.00
2024-02-24T20:19:45.449Z,99777.06
2024-02-24T20:22:17.457Z,99773.50
2024-02-24T20:24:47.476Z,99784.06
2024-02-24T20:27:16.958Z,99775.41
2024-02-24T20:29:46.215Z,99778.16
2024-02-24T20:32:15.575Z,99787.75
2024-02-24T20:34:44.998Z,99788.56
2024-02-24T20:37:15.667Z,99782.22
2024-02-24T20:39:45.424Z,99786.75
2024-02-24T20:42:16.567Z,99785.63
2024-02-24T20:44:46.015Z,99786.75
2024-02-24T20:47:15.198Z,99787.75
2024-02-24T20:49:44.155Z,99781.41
2024-02-24T20:52:12.917Z,99783.34
2024-02-24T20:54:44.661Z,99779.94
2024-02-24T20:57:13.841Z,99782.72
2024-02-24T20:59:42.427Z,99789.91
2024-02-24T21:02:11.466Z,99790.06
2024-02-24T21:04:40.293Z,99796.44
2024-02-24T21:07:09.098Z,99799.94
2024-02-24T21:09:37.732Z,99800.06
2024-02-24T21:12:09.851Z,99808.84
2024-02-24T21:14:38.679Z,99818.53
2024-02-24T21:17:07.677Z,99828.38
2024-02-24T21:19:35.930Z,99830.25
2024-02-24T21:22:03.814Z,99837.22
2024-02-24T21:24:31.887Z,99831.94
2024-02-24T21:27:00.528Z,99818.78
2024-02-24T21:29:30.559Z,99815.41
2024-02-24T21:31:58.518Z,99816.97
2024-02-24T21:34:26.986Z,99825.19
2024-02-24T21:36:54.987Z,99826.22
2024-02-24T21:39:23.196Z,99832.53
2024-02-24T21:41:51.285Z,99840.38
2024-02-24T21:44:19.427Z,99837.88
2024-02-24T21:46:48.639Z,99834.44
2024-02-24T21:49:18.936Z,99838.94
2024-02-24T21:51:47.185Z,99834.66
2024-02-24T21:54:16.485Z,99850.50
2024-02-24T21:56:51.917Z,99846.28
2024-02-24T21:59:20.260Z,99841.16
2024-02-24T22:01:49.697Z,99834.28
2024-02-24T22:04:21.665Z,99829.09
2024-02-24T22:06:49.994Z,99824.88
2024-02-24T22:09:18.433Z,99823.22
2024-02-24T22:11:48.517Z,99819.84
2024-02-24T22:14:22.311Z,99825.28
2024-02-24T22:16:52.096Z,99829.88
2024-02-24T22:19:20.195Z,99832.56
2024-02-24T22:21:50.142Z,99834.28
2024-02-24T22:24:18.158Z,99841.34
2024-02-24T22:26:47.275Z,99839.50
2024-02-24T22:29:15.633Z,99847.47
2024-02-24T22:31:46.086Z,99839.56
2024-02-24T22:34:15.814Z,99837.91
2024-02-24T22:36:43.936Z,99836.28
2024-02-24T22:39:12.026Z,99834.50
2024-02-24T22:41:40.111Z,99835.47
2024-02-24T22:44:09.783Z,99832.09
2024-02-24T22:46:40.059Z,99835.53
2024-02-24T22:49:08.183Z,99823.28
2024-02-24T22:51:37.727Z,99826.97
2024-02-24T22:54:05.962Z,99820.69
2024-02-24T22:56:36.753Z,99816.41
2024-02-24T22:59:04.881Z,99815.75
2024-02-24T23:01:32.968Z,99817.53
2024-02-24T23:04:02.362Z,99818.47
2024-02-24T23:06:30.703Z,99820.41
2024-02-24T23:09:02.801Z,99814.44
2024-02-24T23:11:36.081Z,99815.34
2024-02-24T23:14:09.535Z,99817.19
2024-02-24T23:16:37.698Z,99825.16
2024-02-24T23:19:05.451Z,99829.72
2024-02-24T23:21:36.528Z,99838.03
2024-02-24T23:24:06.533Z,99839.63
2024-02-24T23:26:35.106Z,99837.13
2024-02-24T23:29:04.049Z,99843.50
2024-02-24T23:31:32.280Z,99845.44
2024-02-24T23:34:00.728Z,99833.13
2024-02-24T23:36:28.712Z,99838.22
2024-02-24T23:38:56.858Z,99837.31
2024-02-24T23:41:26.736Z,99831.41
2024-02-24T23:43:54.781Z,99833.22
2024-02-24T23:46:22.773Z,99832.47
2024-02-24T23:49:01.880Z,99845.94
2024-02-24T23:51:29.953Z,99840.91
2024-02-24T23:53:58.071Z,99841.88
2024-02-24T23:56:27.462Z,99843.00
2024-02-24T23:58:55.635Z,99850.75
